^^
Meteo Knjazevac Station Historical Data
Daily Summary for July 15, 2021 Units:  English    Metric   Both
Daily Weekly Monthly Yearly Custom
  High: Low: Average:
Temperature: 66.9 °F 58.4 °F 61.3 °F
Dew Point: 57.6 °F 54 °F 55.4 °F
Humidity: 86% 72% 81%
Wind Speed: 5mph 0mph 1.5mph
Wind Gust: 6mph - -
Wind- - West
Pressure: 30.16 in 30.14 in -
Precipitation: 0.00 in    
Historical Graphs
 
 
Tabular Data for July 15, 2021
Time Temperature Dew Point Pressure Wind Wind Speed Wind Gust Humidity Rainfall Rate (Hourly) solar Conditions
00:00 66.9 °F 57.6 °F 30.16 in Calm   2 mph 72% 0.00 in 0 W/m2
00:10 66.4 °F 57.5 °F 30.16 in Calm   2 mph 73% 0.00 in 0 W/m2
00:20 65.8 °F 57.3 °F 30.16 in West 1 mph 2 mph 74% 0.00 in 0 W/m2
00:30 65.1 °F 56.6 °F 30.16 in Calm   2 mph 74% 0.00 in 0 W/m2
00:40 64.9 °F 56.8 °F 30.16 in West 2 mph 3 mph 75% 0.00 in 0 W/m2
00:50 64.8 °F 56.6 °F 30.15 in West 2 mph 4 mph 75% 0.00 in 0 W/m2
01:00 64.6 °F 56.5 °F 30.15 in West 1 mph 4 mph 75% 0.00 in 0 W/m2
01:10 64.4 °F 57 °F 30.15 in WNW 2 mph 4 mph 77% 0.00 in 0 W/m2
01:20 64.2 °F 56.9 °F 30.15 in WNW 2 mph 4 mph 77% 0.00 in 0 W/m2
01:30 63.9 °F 56.5 °F 30.15 in West 2 mph 4 mph 77% 0.00 in 0 W/m2
01:40 63.5 °F 56.2 °F 30.15 in West 1 mph 3 mph 77% 0.00 in 0 W/m2
01:50 63.1 °F 56.2 °F 30.15 in WSW 2 mph 4 mph 78% 0.00 in 0 W/m2
02:00 62.6 °F 56 °F 30.15 in West 1 mph 4 mph 79% 0.00 in 0 W/m2
02:10 62.4 °F 55.8 °F 30.15 in West 2 mph 4 mph 79% 0.00 in 0 W/m2
02:20 62.4 °F 55.8 °F 30.15 in West 1 mph 5 mph 79% 0.00 in 0 W/m2
02:30 62.1 °F 55.5 °F 30.15 in West 2 mph 4 mph 79% 0.00 in 0 W/m2
02:40 61.9 °F 55.6 °F 30.15 in West 2 mph 4 mph 80% 0.00 in 0 W/m2
02:50 61.7 °F 55.5 °F 30.15 in WSW 2 mph 4 mph 80% 0.00 in 0 W/m2
03:00 61.5 °F 55.3 °F 30.15 in West 2 mph 4 mph 80% 0.00 in 0 W/m2
03:10 61.7 °F 55.5 °F 30.15 in West 2 mph 4 mph 80% 0.00 in 0 W/m2
03:20 61.5 °F 55.2 °F 30.15 in WSW 2 mph 4 mph 80% 0.00 in 0 W/m2
03:30 61 °F 55.1 °F 30.15 in WSW 1 mph 4 mph 81% 0.00 in 0 W/m2
03:40 60.4 °F 54.6 °F 30.14 in West 2 mph 4 mph 81% 0.00 in 0 W/m2
03:50 60.4 °F 55.3 °F 30.14 in Calm   3 mph 83% 0.00 in 0 W/m2
04:00 60.1 °F 54.9 °F 30.15 in West 2 mph 3 mph 83% 0.00 in 0 W/m2
04:10 59.9 °F 54.7 °F 30.15 in West 1 mph 3 mph 83% 0.00 in 0 W/m2
04:20 59.7 °F 54.5 °F 30.15 in Calm   3 mph 83% 0.00 in 0 W/m2
04:30 59.4 °F 54.5 °F 30.15 in West 1 mph 3 mph 84% 0.00 in 0 W/m2
04:40 59.4 °F 54.5 °F 30.15 in West 1 mph 3 mph 84% 0.00 in 0 W/m2
04:50 59.4 °F 54.5 °F 30.15 in WSW 2 mph 3 mph 84% 0.00 in 0 W/m2
05:00 59 °F 54.2 °F 30.15 in SW 1 mph 3 mph 84% 0.00 in 0 W/m2
05:10 58.8 °F 54.3 °F 30.15 in WSW 1 mph 3 mph 85% 0.00 in 0 W/m2
05:20 58.8 °F 54.3 °F 30.15 in West 1 mph 3 mph 85% 0.00 in 0 W/m2
05:30 58.6 °F 54.1 °F 30.15 in West 1 mph 3 mph 85% 0.00 in 0 W/m2
05:40 58.5 °F 54 °F 30.15 in WSW 1 mph 5 mph 85% 0.00 in 6 W/m2
05:50 58.5 °F 54.3 °F 30.15 in West 5 mph 6 mph 86% 0.00 in 12 W/m2
06:00 58.4 °F 54.2 °F 30.15 in West 3 mph 6 mph 86% 0.00 in 21 W/m2
06:10 58.5 °F 54.3 °F 30.15 in West 3 mph 5 mph 86% 0.00 in 35 W/m2
06:20 58.6 °F 54.5 °F 30.16 in West 3 mph 5 mph 86% 0.00 in 51 W/m2
06:30 58.7 °F 54.5 °F 30.16 in West 1 mph 5 mph 86% 0.00 in 71 W/m2
06:40 58.8 °F 54.6 °F 30.16 in WSW 1 mph 3 mph 86% 0.00 in 92 W/m2
06:50 59 °F 54.8 °F 30.16 in West 1 mph 3 mph 86% 0.00 in 118 W/m2
07:00 59.4 °F 55.2 °F 30.16 in WNW 1 mph 2 mph 86% 0.00 in 145 W/m2
07:10 60.1 °F 55.6 °F 30.16 in WNW 1 mph 4 mph 85% 0.00 in 172 W/m2
Knjazevac, Serbia
Compliments of Weather Underground - 2 mb